createdAt,value
2018-09-19T00:00:11.290Z,0.00
2018-09-19T00:01:11.006Z,0.00
2018-09-19T00:02:11.793Z,0.00
2018-09-19T00:03:10.906Z,0.00
2018-09-19T00:04:10.884Z,0.00
2018-09-19T00:05:10.968Z,0.00
2018-09-19T00:06:11.122Z,0.00
2018-09-19T00:07:10.854Z,0.00
2018-09-19T00:08:10.801Z,0.00
2018-09-19T00:09:10.871Z,0.00
2018-09-19T00:10:10.910Z,0.00
2018-09-19T00:11:10.797Z,0.00
2018-09-19T00:12:11.115Z,0.00
2018-09-19T00:13:10.772Z,0.00
2018-09-19T00:14:10.968Z,0.00
2018-09-19T00:15:10.753Z,0.00
2018-09-19T00:16:10.681Z,0.00
2018-09-19T00:17:10.722Z,0.00
2018-09-19T00:18:11.198Z,0.00
2018-09-19T00:19:10.936Z,0.00
2018-09-19T00:20:10.798Z,0.00
2018-09-19T00:21:10.612Z,0.00
2018-09-19T00:22:10.685Z,0.00
2018-09-19T00:23:11.067Z,0.00
2018-09-19T00:24:10.956Z,0.00
2018-09-19T00:25:10.621Z,0.00
2018-09-19T00:26:10.627Z,0.00
2018-09-19T00:27:10.657Z,0.00
2018-09-19T00:28:10.519Z,0.00
2018-09-19T00:29:10.700Z,0.00
2018-09-19T00:30:10.969Z,0.00
2018-09-19T00:31:10.800Z,0.00
2018-09-19T00:32:11.143Z,0.00
2018-09-19T00:33:10.543Z,0.00
2018-09-19T00:34:10.515Z,0.00
2018-09-19T00:35:10.474Z,0.00
2018-09-19T00:36:10.860Z,0.00
2018-09-19T00:37:10.391Z,0.00
2018-09-19T00:38:10.446Z,0.00
2018-09-19T00:39:10.421Z,0.00
2018-09-19T00:40:10.363Z,0.00
2018-09-19T00:41:10.497Z,0.00
2018-09-19T00:42:10.679Z,0.00
2018-09-19T00:43:10.320Z,0.00
2018-09-19T00:44:10.296Z,0.00
2018-09-19T00:46:10.337Z,0.00
2018-09-19T00:47:10.311Z,0.00
2018-09-19T00:48:10.437Z,0.00
2018-09-19T00:49:10.648Z,0.00
2018-09-19T00:50:10.382Z,0.00
2018-09-19T00:51:10.249Z,0.00
2018-09-19T00:52:10.197Z,0.00
2018-09-19T00:53:10.411Z,0.00
2018-09-19T00:54:10.264Z,0.00
2018-09-19T00:55:10.373Z,0.00
2018-09-19T00:56:10.479Z,0.00
2018-09-19T00:57:10.267Z,0.00
2018-09-19T00:58:10.261Z,0.00
2018-09-19T00:59:10.364Z,0.00
2018-09-19T01:00:10.132Z,0.00
2018-09-19T01:01:10.208Z,0.00
2018-09-19T01:02:10.113Z,0.00
2018-09-19T01:03:10.509Z,0.00
2018-09-19T01:04:10.094Z,0.00
2018-09-19T01:05:10.254Z,0.00
2018-09-19T01:06:10.150Z,0.00
2018-09-19T01:07:10.032Z,0.00
2018-09-19T01:08:10.117Z,0.00
2018-09-19T01:09:09.994Z,0.00
2018-09-19T01:10:10.314Z,0.00
2018-09-19T01:11:10.082Z,0.00
2018-09-19T01:12:09.975Z,0.00
2018-09-19T01:13:09.973Z,0.00
2018-09-19T01:14:10.028Z,0.00
2018-09-19T01:15:09.937Z,0.00
2018-09-19T01:16:09.902Z,0.00
2018-09-19T01:17:10.236Z,0.00
2018-09-19T01:18:09.891Z,0.00
2018-09-19T01:19:09.843Z,0.00
2018-09-19T01:20:10.012Z,0.00
2018-09-19T01:21:09.885Z,0.00
2018-09-19T01:22:09.826Z,0.00
2018-09-19T01:23:09.812Z,0.00
2018-09-19T01:24:10.086Z,0.00
2018-09-19T01:25:09.772Z,0.00
2018-09-19T01:26:09.760Z,0.00
2018-09-19T01:27:09.702Z,0.00
2018-09-19T01:28:09.730Z,0.00
2018-09-19T01:29:10.014Z,0.00
2018-09-19T01:30:09.667Z,0.00
2018-09-19T01:31:10.038Z,0.00
2018-09-19T01:32:09.687Z,0.00
2018-09-19T01:33:09.722Z,0.00
2018-09-19T01:34:09.766Z,0.00
2018-09-19T01:35:09.634Z,0.00
2018-09-19T01:36:09.625Z,0.00
2018-09-19T01:39:09.876Z,0.00
2018-09-19T01:40:09.621Z,0.00
2018-09-19T01:41:09.547Z,0.00
2018-09-19T01:42:09.864Z,0.00
2018-09-19T01:43:09.472Z,0.00
2018-09-19T01:44:09.557Z,0.00
2018-09-19T01:45:09.789Z,0.00
2018-09-19T01:46:10.244Z,0.00
2018-09-19T01:47:09.580Z,0.00
2018-09-19T01:48:09.560Z,0.00
2018-09-19T01:49:09.442Z,0.00
2018-09-19T01:50:09.518Z,0.00
2018-09-19T01:51:09.752Z,0.00
2018-09-19T01:52:09.447Z,0.00
2018-09-19T01:53:09.377Z,0.00
2018-09-19T01:54:09.308Z,0.00
2018-09-19T01:55:09.375Z,0.00
2018-09-19T01:56:09.478Z,0.00
2018-09-19T01:57:09.920Z,0.00
2018-09-19T01:58:09.492Z,0.00
2018-09-19T01:59:09.678Z,0.00
2018-09-19T02:00:09.436Z,0.00
2018-09-19T02:01:09.359Z,0.00
2018-09-19T02:02:09.258Z,0.00
2018-09-19T02:03:09.687Z,0.00
2018-09-19T02:04:09.322Z,0.00
2018-09-19T02:05:09.205Z,0.00
2018-09-19T02:06:09.277Z,0.00
2018-09-19T02:07:09.179Z,0.00
2018-09-19T02:08:09.225Z,0.00
2018-09-19T02:09:09.446Z,0.00
2018-09-19T02:11:09.267Z,0.00
2018-09-19T02:12:09.044Z,0.00
2018-09-19T02:13:09.037Z,0.00
2018-09-19T02:14:09.067Z,0.00
2018-09-19T02:16:09.478Z,0.00
2018-09-19T02:17:09.141Z,0.00
2018-09-19T02:18:09.046Z,0.00
2018-09-19T02:19:09.257Z,0.00
2018-09-19T02:20:09.087Z,0.00
2018-09-19T02:21:09.115Z,0.00
2018-09-19T02:22:09.076Z,0.00
2018-09-19T02:23:09.361Z,0.00
2018-09-19T02:24:08.921Z,0.00
2018-09-19T02:25:08.872Z,0.00
2018-09-19T02:26:08.905Z,0.00
2018-09-19T02:27:09.110Z,0.00
2018-09-19T02:28:09.066Z,0.00
2018-09-19T02:29:08.906Z,0.00
2018-09-19T02:30:09.176Z,0.00
2018-09-19T02:31:09.080Z,0.00
2018-09-19T02:32:08.820Z,0.00
2018-09-19T02:33:08.806Z,0.00
2018-09-19T02:34:08.809Z,0.00
2018-09-19T02:35:08.907Z,0.00
2018-09-19T02:36:08.769Z,0.00
2018-09-19T02:37:09.033Z,0.00
2018-09-19T02:38:08.741Z,0.00
2018-09-19T02:39:08.650Z,0.00
2018-09-19T02:40:08.694Z,0.00
2018-09-19T02:41:08.845Z,0.00
2018-09-19T02:42:08.668Z,0.00
2018-09-19T02:43:08.640Z,0.00
2018-09-19T02:44:09.028Z,0.00
2018-09-19T02:46:08.640Z,0.00
2018-09-19T02:47:08.582Z,0.00
2018-09-19T02:48:08.678Z,0.00
2018-09-19T02:49:08.535Z,0.00
2018-09-19T02:50:09.340Z,0.00
2018-09-19T02:51:08.830Z,0.00
2018-09-19T02:52:08.470Z,0.00
2018-09-19T02:53:08.546Z,0.00
2018-09-19T02:54:08.459Z,0.00
2018-09-19T02:55:08.599Z,0.00
2018-09-19T02:56:08.553Z,0.00
2018-09-19T02:57:08.512Z,0.00
2018-09-19T02:58:08.744Z,0.00
2018-09-19T02:59:08.561Z,0.00
2018-09-19T03:00:08.561Z,0.00
2018-09-19T03:02:08.713Z,0.00
2018-09-19T03:03:08.348Z,0.00
2018-09-19T03:04:08.661Z,0.00
2018-09-19T03:05:08.321Z,0.00
2018-09-19T03:06:08.583Z,0.00
2018-09-19T03:07:08.446Z,0.00
2018-09-19T03:08:08.403Z,0.00
2018-09-19T03:09:08.427Z,0.00
2018-09-19T03:10:08.711Z,0.00
2018-09-19T03:11:08.492Z,0.00
2018-09-19T03:12:08.616Z,0.00
2018-09-19T03:13:08.174Z,0.00
2018-09-19T03:14:08.216Z,0.00
2018-09-19T03:16:08.765Z,0.00
2018-09-19T03:17:08.344Z,0.00
2018-09-19T03:18:08.158Z,0.00
2018-09-19T03:19:08.196Z,0.00
2018-09-19T03:20:08.247Z,0.00
2018-09-19T03:21:08.128Z,0.00
2018-09-19T03:22:08.458Z,0.00
2018-09-19T03:23:08.979Z,0.00
2018-09-19T03:24:08.071Z,0.00
2018-09-19T03:25:08.428Z,0.00
2018-09-19T03:26:08.094Z,0.00
2018-09-19T03:27:08.039Z,0.00
2018-09-19T03:28:08.460Z,0.00
2018-09-19T03:29:08.090Z,0.00
2018-09-19T03:30:08.404Z,0.00
2018-09-19T03:31:07.959Z,0.00
2018-09-19T03:32:07.925Z,0.00
2018-09-19T03:33:07.959Z,0.00
2018-09-19T03:34:08.248Z,0.00
2018-09-19T03:35:08.166Z,0.00
2018-09-19T03:36:08.259Z,0.00
2018-09-19T03:37:09.307Z,0.00
2018-09-19T03:39:07.833Z,0.00
2018-09-19T03:42:07.844Z,0.00
2018-09-19T03:43:07.796Z,0.00
2018-09-19T03:44:07.835Z,0.00
2018-09-19T03:45:07.747Z,0.00
2018-09-19T03:46:08.505Z,0.00
2018-09-19T03:47:08.105Z,0.00
2018-09-19T03:48:07.730Z,0.00
2018-09-19T03:50:08.288Z,0.00
2018-09-19T03:51:07.632Z,0.00
2018-09-19T03:52:07.792Z,0.00
2018-09-19T03:53:07.729Z,0.00
2018-09-19T03:54:08.145Z,0.00
2018-09-19T03:55:07.651Z,0.00
2018-09-19T03:56:07.580Z,0.00
2018-09-19T03:57:07.618Z,0.00
2018-09-19T03:58:07.716Z,0.00
2018-09-19T03:59:07.616Z,0.00
2018-09-19T04:00:07.965Z,0.00
2018-09-19T04:01:07.922Z,0.00
2018-09-19T04:02:07.527Z,0.00
2018-09-19T04:03:07.625Z,0.00
2018-09-19T04:04:07.530Z,0.00
2018-09-19T04:05:07.557Z,0.00
2018-09-19T04:06:07.443Z,0.00
2018-09-19T04:07:07.502Z,0.00
2018-09-19T04:10:07.692Z,0.00
2018-09-19T04:11:07.379Z,0.00
2018-09-19T04:12:08.021Z,0.00
2018-09-19T04:14:07.340Z,0.00
2018-09-19T04:15:07.266Z,0.00
2018-09-19T04:16:07.376Z,0.00
2018-09-19T04:17:09.167Z,0.00
2018-09-19T04:18:07.491Z,0.00
2018-09-19T04:19:07.252Z,0.00
2018-09-19T04:20:07.193Z,0.00
2018-09-19T04:22:07.267Z,0.00
2018-09-19T04:23:07.351Z,0.00
2018-09-19T04:24:07.501Z,0.00
2018-09-19T04:25:07.497Z,0.00
2018-09-19T04:26:07.311Z,0.00
2018-09-19T04:27:08.091Z,0.00
2018-09-19T04:28:07.107Z,0.00
2018-09-19T04:29:07.950Z,0.00
2018-09-19T04:31:07.901Z,0.00
2018-09-19T04:32:07.334Z,0.00
2018-09-19T04:33:07.824Z,0.00
2018-09-19T04:34:07.187Z,0.00
2018-09-19T04:35:07.445Z,0.00
2018-09-19T04:36:07.015Z,0.00
2018-09-19T04:37:07.968Z,0.00
2018-09-19T04:38:07.081Z,0.00
2018-09-19T04:40:06.904Z,0.00
2018-09-19T04:41:07.098Z,0.00
2018-09-19T04:42:07.388Z,0.00
2018-09-19T04:44:07.129Z,0.00
2018-09-19T04:46:07.321Z,0.00
2018-09-19T04:47:07.197Z,0.00
2018-09-19T04:48:06.791Z,0.00
2018-09-19T04:49:07.138Z,0.00
2018-09-19T04:50:07.094Z,0.00
2018-09-19T04:51:07.308Z,0.00
2018-09-19T04:53:06.720Z,0.00
2018-09-19T04:54:06.833Z,0.00
2018-09-19T04:55:07.067Z,0.00
2018-09-19T04:57:08.996Z,0.00
2018-09-19T04:58:06.621Z,0.00
2018-09-19T04:59:07.419Z,0.00
2018-09-19T05:01:06.590Z,5.63
2018-09-19T05:02:06.561Z,5.63
2018-09-19T05:03:07.245Z,5.63
2018-09-19T05:04:06.511Z,5.63
2018-09-19T05:05:06.915Z,5.63
2018-09-19T05:06:06.494Z,5.63
2018-09-19T05:08:06.468Z,5.63
2018-09-19T05:09:06.400Z,5.63
2018-09-19T05:10:07.149Z,11.25
2018-09-19T05:11:06.823Z,11.25
2018-09-19T05:12:06.350Z,11.25
2018-09-19T05:14:06.382Z,16.88
2018-09-19T05:15:06.384Z,16.88
2018-09-19T05:16:07.343Z,16.88
2018-09-19T05:17:06.424Z,22.50
2018-09-19T05:18:06.713Z,22.50
2018-09-19T05:19:06.749Z,22.50
2018-09-19T05:20:06.241Z,28.13
2018-09-19T05:21:06.904Z,28.13
2018-09-19T05:22:06.825Z,33.75
2018-09-19T05:23:06.238Z,39.38
2018-09-19T05:25:06.418Z,45.00
2018-09-19T05:26:06.538Z,45.00
2018-09-19T05:28:06.908Z,50.63
2018-09-19T05:29:06.508Z,50.63
2018-09-19T05:31:06.231Z,50.63
2018-09-19T05:32:06.744Z,50.63
2018-09-19T05:33:06.387Z,50.63
2018-09-19T05:34:06.611Z,50.63
2018-09-19T05:35:06.322Z,50.63
2018-09-19T05:36:06.072Z,56.25
2018-09-19T05:37:06.019Z,56.25
2018-09-19T05:38:06.271Z,50.63
2018-09-19T05:39:05.969Z,50.63
2018-09-19T05:40:06.367Z,50.63
2018-09-19T05:41:06.211Z,50.63
2018-09-19T05:42:05.937Z,45.00
2018-09-19T05:43:06.008Z,45.00
2018-09-19T05:44:05.926Z,45.00
2018-09-19T05:45:05.917Z,45.00
2018-09-19T05:46:06.639Z,45.00
2018-09-19T05:48:06.007Z,45.00
2018-09-19T05:49:06.129Z,45.00
2018-09-19T05:50:05.917Z,45.00
2018-09-19T05:51:10.986Z,50.63
2018-09-19T05:52:07.115Z,50.63
2018-09-19T05:54:05.728Z,56.25
2018-09-19T05:55:05.733Z,56.25
2018-09-19T05:56:05.667Z,56.25
2018-09-19T05:57:06.014Z,56.25
2018-09-19T06:00:05.805Z,56.25
2018-09-19T06:01:05.651Z,56.25
2018-09-19T06:02:06.089Z,56.25
2018-09-19T06:03:05.935Z,56.25
2018-09-19T06:04:05.622Z,56.25
2018-09-19T06:06:05.636Z,61.88
2018-09-19T06:09:05.529Z,67.50
2018-09-19T06:10:05.495Z,67.50
2018-09-19T06:12:05.602Z,73.13
2018-09-19T06:14:06.067Z,73.13
2018-09-19T06:15:05.804Z,67.50
2018-09-19T06:16:06.738Z,67.50
2018-09-19T06:18:05.986Z,73.13
2018-09-19T06:19:05.920Z,73.13
2018-09-19T06:20:05.435Z,73.13
2018-09-19T06:22:05.464Z,67.50
2018-09-19T06:23:06.344Z,67.50
2018-09-19T06:24:05.330Z,67.50
2018-09-19T06:25:05.655Z,73.13
2018-09-19T06:26:05.776Z,73.13
2018-09-19T06:27:05.366Z,73.13
2018-09-19T06:28:05.652Z,73.13
2018-09-19T06:30:05.280Z,73.13
2018-09-19T06:31:06.691Z,78.75
2018-09-19T06:34:05.858Z,73.13
2018-09-19T06:38:06.676Z,73.13
2018-09-19T06:39:05.803Z,73.13
2018-09-19T06:40:05.590Z,78.75
2018-09-19T06:42:06.098Z,78.75
2018-09-19T06:43:05.179Z,78.75
2018-09-19T06:44:05.428Z,78.75
2018-09-19T06:45:05.008Z,73.13
2018-09-19T06:47:05.370Z,73.13
2018-09-19T06:48:04.969Z,78.75
2018-09-19T06:49:05.121Z,78.75
2018-09-19T06:51:05.344Z,78.75
2018-09-19T06:53:04.895Z,78.75
2018-09-19T06:54:05.304Z,78.75
2018-09-19T06:55:04.821Z,84.38
2018-09-19T06:56:04.867Z,95.63
2018-09-19T06:57:05.236Z,84.38
2018-09-19T06:58:04.972Z,84.38
2018-09-19T06:59:04.874Z,84.38
2018-09-19T07:00:04.821Z,84.38
2018-09-19T07:01:04.765Z,84.38
2018-09-19T07:02:04.740Z,84.38
2018-09-19T07:03:05.053Z,84.38
2018-09-19T07:04:04.746Z,90.00
2018-09-19T07:06:04.700Z,90.00
2018-09-19T07:07:04.705Z,90.00
2018-09-19T07:08:04.777Z,90.00
2018-09-19T07:09:04.976Z,90.00
2018-09-19T07:10:04.669Z,90.00
2018-09-19T07:11:04.638Z,95.63
2018-09-19T07:12:04.799Z,90.00
2018-09-19T07:13:04.983Z,90.00
2018-09-19T07:14:04.692Z,95.63
2018-09-19T07:15:05.361Z,95.63
2018-09-19T07:16:04.684Z,101.25
2018-09-19T07:17:04.814Z,106.88
2018-09-19T07:19:04.546Z,118.13
2018-09-19T07:20:04.528Z,112.50
2018-09-19T07:23:04.843Z,129.38
2018-09-19T07:24:04.498Z,129.38
2018-09-19T07:26:04.523Z,135.00
2018-09-19T07:27:04.422Z,135.00
2018-09-19T07:28:04.368Z,135.00
2018-09-19T07:29:04.709Z,140.63
2018-09-19T07:30:04.390Z,135.00
2018-09-19T07:31:04.632Z,135.00
2018-09-19T07:32:04.310Z,140.63
2018-09-19T07:33:04.652Z,135.00
2018-09-19T07:34:04.369Z,135.00
2018-09-19T07:35:04.612Z,135.00
2018-09-19T07:36:04.399Z,140.63
2018-09-19T07:37:04.327Z,146.25
2018-09-19T07:38:04.344Z,140.63
2018-09-19T07:39:04.674Z,140.63
2018-09-19T07:40:04.331Z,151.88
2018-09-19T07:42:04.505Z,174.38
2018-09-19T07:43:04.207Z,168.75
2018-09-19T07:44:04.170Z,168.75
2018-09-19T07:45:04.217Z,168.75
2018-09-19T07:46:04.190Z,163.13
2018-09-19T07:47:04.203Z,168.75
2018-09-19T07:48:04.469Z,168.75
2018-09-19T07:49:04.168Z,163.13
2018-09-19T07:50:04.140Z,163.13
2018-09-19T07:51:04.123Z,168.75
2018-09-19T07:53:04.104Z,174.38
2018-09-19T07:54:04.405Z,174.38
2018-09-19T07:55:04.083Z,168.75
2018-09-19T07:56:04.080Z,168.75
2018-09-19T07:57:04.160Z,163.13
2018-09-19T07:58:03.989Z,163.13
2018-09-19T07:59:04.033Z,163.13
2018-09-19T08:00:04.342Z,157.50
2018-09-19T08:01:03.981Z,157.50
2018-09-19T08:02:03.998Z,151.88
2018-09-19T08:03:04.095Z,146.25
2018-09-19T08:04:04.029Z,151.88
2018-09-19T08:05:03.978Z,151.88
2018-09-19T08:06:04.258Z,146.25
2018-09-19T08:07:03.982Z,146.25
2018-09-19T08:08:03.980Z,151.88
2018-09-19T08:09:04.086Z,146.25
2018-09-19T08:10:03.859Z,146.25
2018-09-19T08:11:03.915Z,146.25
2018-09-19T08:12:04.258Z,151.88
2018-09-19T08:13:03.894Z,157.50
2018-09-19T08:14:03.895Z,168.75
2018-09-19T08:15:03.948Z,174.38
2018-09-19T08:16:03.784Z,163.13
2018-09-19T08:17:03.963Z,157.50
2018-09-19T08:18:04.128Z,168.75
2018-09-19T08:19:03.811Z,168.75
2018-09-19T08:20:03.748Z,168.75
2018-09-19T08:21:03.791Z,168.75
2018-09-19T08:22:03.719Z,185.63
2018-09-19T08:23:03.933Z,174.38
2018-09-19T08:24:04.047Z,174.38
2018-09-19T08:25:04.152Z,180.00
2018-09-19T08:26:10.025Z,168.75
2018-09-19T08:27:03.839Z,191.25
2018-09-19T08:28:03.678Z,180.00
2018-09-19T08:29:03.736Z,185.63
2018-09-19T08:30:05.031Z,196.88
2018-09-19T08:31:03.692Z,196.88
2018-09-19T08:32:03.672Z,196.88
2018-09-19T08:33:03.876Z,180.00
2018-09-19T08:34:03.639Z,174.38
2018-09-19T08:35:03.627Z,191.25
2018-09-19T08:37:03.570Z,213.75
2018-09-19T08:38:03.589Z,230.63
2018-09-19T08:39:03.626Z,219.38
2018-09-19T08:40:03.526Z,219.38
2018-09-19T08:42:03.851Z,230.63
2018-09-19T08:43:03.566Z,241.88
2018-09-19T08:44:03.541Z,247.50
2018-09-19T08:45:03.541Z,258.75
2018-09-19T08:46:04.065Z,253.13
2018-09-19T08:47:04.139Z,219.38
2018-09-19T08:48:03.790Z,281.25
2018-09-19T08:49:03.508Z,270.00
2018-09-19T08:50:03.467Z,303.75
2018-09-19T08:51:03.552Z,348.75
2018-09-19T08:53:03.447Z,275.63
2018-09-19T08:55:03.452Z,264.38
2018-09-19T08:56:03.415Z,2019.38
2018-09-19T08:57:03.760Z,309.38
2018-09-19T08:58:03.395Z,303.75
2018-09-19T08:59:03.386Z,326.25
2018-09-19T09:01:03.771Z,320.63
2018-09-19T09:02:03.450Z,331.88
2018-09-19T09:03:03.508Z,320.63
2018-09-19T09:04:03.297Z,275.63
2018-09-19T09:05:03.342Z,466.88
2018-09-19T09:06:03.331Z,483.75
2018-09-19T09:07:03.614Z,410.63
2018-09-19T09:08:03.295Z,438.75
2018-09-19T09:09:03.288Z,1794.38
2018-09-19T09:10:03.278Z,455.63
2018-09-19T09:11:03.263Z,1119.38
2018-09-19T09:12:03.219Z,2463.75
2018-09-19T09:13:03.564Z,2430.00
2018-09-19T09:14:03.200Z,2593.13
2018-09-19T09:15:03.300Z,2587.50
2018-09-19T09:16:03.173Z,2553.75
2018-09-19T09:17:03.224Z,2666.25
2018-09-19T09:18:03.257Z,2683.13
2018-09-19T09:19:03.485Z,2655.00
2018-09-19T09:20:03.478Z,2463.75
2018-09-19T09:21:03.194Z,2508.75
2018-09-19T09:22:03.107Z,2576.25
2018-09-19T09:23:03.114Z,2643.75
2018-09-19T09:24:03.193Z,2598.75
2018-09-19T09:25:03.446Z,2565.00
2018-09-19T09:26:03.133Z,2463.75
2018-09-19T09:27:03.429Z,2559.38
2018-09-19T09:28:03.187Z,2671.88
2018-09-19T09:29:03.115Z,2615.63
2018-09-19T09:30:03.051Z,2671.88
2018-09-19T09:31:03.416Z,2655.00
2018-09-19T09:32:03.078Z,2531.25
2018-09-19T09:33:03.090Z,2773.13
2018-09-19T09:34:03.070Z,2767.50
2018-09-19T09:35:03.161Z,2705.63
2018-09-19T09:36:03.052Z,2626.88
2018-09-19T09:37:03.393Z,2790.00
2018-09-19T09:38:03.045Z,2570.63
2018-09-19T09:39:03.027Z,2643.75
2018-09-19T09:40:02.973Z,2525.63
2018-09-19T09:41:02.970Z,2238.75
2018-09-19T09:42:03.023Z,2722.50
2018-09-19T09:43:03.304Z,2671.88
2018-09-19T09:44:02.993Z,2773.13
2018-09-19T09:45:02.979Z,2908.13
2018-09-19T09:46:02.963Z,2863.13
2018-09-19T09:47:02.918Z,2716.88
2018-09-19T09:49:03.230Z,2660.63
2018-09-19T09:50:02.981Z,2705.63
2018-09-19T09:51:02.964Z,2750.63
2018-09-19T09:52:02.957Z,2716.88
2018-09-19T09:53:02.922Z,2801.25
2018-09-19T09:55:03.233Z,2930.63
2018-09-19T09:56:02.898Z,2840.63
2018-09-19T09:57:03.013Z,2739.38
2018-09-19T09:58:02.882Z,2801.25
2018-09-19T10:00:02.820Z,2846.25
2018-09-19T10:01:03.995Z,2823.75
2018-09-19T10:02:03.552Z,2756.25
2018-09-19T10:03:04.197Z,2745.00
2018-09-19T10:04:03.435Z,2688.75
2018-09-19T10:05:02.837Z,2626.88
2018-09-19T10:06:08.622Z,2598.75
2018-09-19T10:07:03.133Z,2767.50
2018-09-19T10:09:02.817Z,2553.75
2018-09-19T10:10:02.783Z,2638.13
2018-09-19T10:11:02.814Z,2593.13
2018-09-19T10:12:02.873Z,2548.13
2018-09-19T10:13:03.116Z,2632.50
2018-09-19T10:14:02.731Z,2666.25
2018-09-19T10:16:02.722Z,2643.75
2018-09-19T10:17:02.823Z,2334.38
2018-09-19T10:18:02.788Z,2165.63
2018-09-19T10:19:03.062Z,2334.38
2018-09-19T10:20:02.766Z,2458.13
2018-09-19T10:21:03.066Z,2491.88
2018-09-19T10:22:02.785Z,2446.88
2018-09-19T10:23:02.715Z,2598.75
2018-09-19T10:24:02.790Z,2441.25
2018-09-19T10:25:03.033Z,2385.00
2018-09-19T10:26:02.678Z,2559.38
2018-09-19T10:27:02.825Z,2480.63
2018-09-19T10:28:02.673Z,2542.50
2018-09-19T10:29:02.719Z,2643.75
2018-09-19T10:30:02.722Z,2553.75
2018-09-19T10:31:03.005Z,2503.13
2018-09-19T10:32:02.700Z,2266.88
2018-09-19T10:33:02.801Z,2379.38
2018-09-19T10:34:02.701Z,2396.25
2018-09-19T10:35:02.748Z,2480.63
2018-09-19T10:36:02.830Z,2615.63
2018-09-19T10:37:03.318Z,2581.88
2018-09-19T10:38:02.845Z,2671.88
2018-09-19T10:39:02.701Z,2233.13
2018-09-19T10:40:02.664Z,1288.13
2018-09-19T10:41:02.608Z,883.13
2018-09-19T10:42:02.728Z,720.00
2018-09-19T10:44:03.341Z,523.13
2018-09-19T10:45:02.872Z,821.25
2018-09-19T10:46:02.649Z,798.75
2018-09-19T10:48:02.666Z,675.00
2018-09-19T10:50:03.398Z,843.75
2018-09-19T10:51:03.228Z,382.50
2018-09-19T10:52:02.923Z,483.75
2018-09-19T10:53:03.899Z,562.50
2018-09-19T10:54:03.246Z,838.13
2018-09-19T10:55:02.947Z,427.50
2018-09-19T10:56:02.742Z,860.63
2018-09-19T10:57:02.700Z,916.88
2018-09-19T10:58:02.635Z,815.63
2018-09-19T10:59:02.562Z,855.00
2018-09-19T11:01:02.838Z,1850.63
2018-09-19T11:02:02.649Z,2126.25
2018-09-19T11:03:02.638Z,472.50
2018-09-19T11:04:02.824Z,2013.75
2018-09-19T11:05:02.593Z,2160.00
2018-09-19T11:06:02.868Z,1991.25
2018-09-19T11:08:02.873Z,1963.13
2018-09-19T11:09:02.851Z,388.13
2018-09-19T11:10:02.654Z,1260.00
2018-09-19T11:11:02.496Z,489.38
2018-09-19T11:12:02.547Z,1963.13
2018-09-19T11:13:02.486Z,2025.00
2018-09-19T11:14:02.857Z,1918.13
2018-09-19T11:15:02.647Z,354.38
2018-09-19T11:16:02.667Z,1310.63
2018-09-19T11:17:02.559Z,590.63
2018-09-19T11:18:04.802Z,596.25
2018-09-19T11:19:02.543Z,556.88
2018-09-19T11:20:03.488Z,748.13
2018-09-19T11:21:02.639Z,669.38
2018-09-19T11:22:02.473Z,365.63
2018-09-19T11:23:02.534Z,478.13
2018-09-19T11:24:02.587Z,725.63
2018-09-19T11:25:02.618Z,736.88
2018-09-19T11:26:02.437Z,376.88
2018-09-19T11:28:02.507Z,298.13
2018-09-19T11:29:02.483Z,568.13
2018-09-19T11:30:02.497Z,601.88
2018-09-19T11:31:02.437Z,534.38
2018-09-19T11:32:02.499Z,596.25
2018-09-19T11:33:03.170Z,596.25
2018-09-19T11:34:02.539Z,545.63
2018-09-19T11:35:02.588Z,365.63
2018-09-19T11:36:02.482Z,365.63
2018-09-19T11:37:02.449Z,624.38
2018-09-19T11:38:02.464Z,596.25
2018-09-19T11:39:02.885Z,585.00
2018-09-19T11:40:02.453Z,562.50
2018-09-19T11:41:02.385Z,534.38
2018-09-19T11:43:02.426Z,286.88
2018-09-19T11:50:02.543Z,528.75
2018-09-19T11:51:02.345Z,534.38
2018-09-19T11:52:02.348Z,573.75
2018-09-19T11:53:02.361Z,573.75
2018-09-19T11:55:02.730Z,517.50
2018-09-19T11:56:02.337Z,506.25
2018-09-19T11:57:02.653Z,517.50
2018-09-19T11:58:02.450Z,506.25
2018-09-19T12:00:03.986Z,517.50
2018-09-19T12:02:02.880Z,534.38
2018-09-19T12:03:02.324Z,573.75
2018-09-19T12:04:02.286Z,562.50
2018-09-19T12:05:02.360Z,540.00
2018-09-19T12:06:02.348Z,523.13
2018-09-19T12:07:02.331Z,517.50
2018-09-19T12:08:02.931Z,528.75
2018-09-19T12:09:02.323Z,545.63
2018-09-19T12:10:02.347Z,573.75
2018-09-19T12:11:02.323Z,354.38
2018-09-19T12:12:02.344Z,523.13
2018-09-19T12:14:02.683Z,528.75
2018-09-19T12:15:02.274Z,545.63
2018-09-19T12:16:02.360Z,545.63
2018-09-19T12:18:02.278Z,534.38
2018-09-19T12:19:02.536Z,528.75
2018-09-19T12:20:02.670Z,534.38
2018-09-19T12:23:02.429Z,534.38
2018-09-19T12:24:03.208Z,573.75
2018-09-19T12:25:02.347Z,528.75
2018-09-19T12:26:03.093Z,523.13
2018-09-19T12:27:04.422Z,455.63
2018-09-19T12:28:03.259Z,450.00
2018-09-19T12:29:04.156Z,500.63
2018-09-19T12:30:03.436Z,483.75
2018-09-19T12:31:02.484Z,489.38
2018-09-19T12:32:02.839Z,495.00
2018-09-19T12:33:02.306Z,500.63
2018-09-19T12:34:02.758Z,450.00
2018-09-19T12:35:02.221Z,433.13
2018-09-19T12:36:03.769Z,472.50
2018-09-19T12:37:02.269Z,478.13
2018-09-19T12:38:02.951Z,410.63
2018-09-19T12:39:02.327Z,472.50
2018-09-19T12:40:02.396Z,461.25
2018-09-19T12:41:02.316Z,483.75
2018-09-19T12:42:02.353Z,466.88
2018-09-19T12:43:02.255Z,489.38
2018-09-19T12:44:02.690Z,483.75
2018-09-19T12:45:02.280Z,495.00
2018-09-19T12:46:02.488Z,506.25
2018-09-19T12:47:02.178Z,511.88
2018-09-19T12:48:02.251Z,511.88
2018-09-19T12:49:02.276Z,511.88
2018-09-19T12:50:02.646Z,506.25
2018-09-19T12:52:02.489Z,523.13
2018-09-19T12:54:02.371Z,742.50
2018-09-19T12:55:05.696Z,646.88
2018-09-19T12:56:02.544Z,585.00
2018-09-19T12:57:02.375Z,540.00
2018-09-19T12:58:02.173Z,523.13
2018-09-19T12:59:02.234Z,506.25
2018-09-19T13:00:02.644Z,511.88
2018-09-19T13:01:02.353Z,405.00
2018-09-19T13:02:02.533Z,500.63
2018-09-19T13:03:02.203Z,511.88
2018-09-19T13:04:02.202Z,495.00
2018-09-19T13:05:02.192Z,444.38
2018-09-19T13:06:02.200Z,478.13
2018-09-19T13:08:03.265Z,438.75
2018-09-19T13:09:02.177Z,573.75
2018-09-19T13:10:02.220Z,455.63
2018-09-19T13:11:02.340Z,399.38
2018-09-19T13:12:02.214Z,376.88
2018-09-19T13:13:02.181Z,281.25
2018-09-19T13:15:02.956Z,421.88
2018-09-19T13:16:02.213Z,455.63
2018-09-19T13:18:02.587Z,438.75
2018-09-19T13:19:02.198Z,472.50
2018-09-19T13:20:02.376Z,461.25
2018-09-19T13:21:02.503Z,461.25
2018-09-19T13:22:02.111Z,517.50
2018-09-19T13:23:02.137Z,466.88
2018-09-19T13:24:02.115Z,466.88
2018-09-19T13:27:14.227Z,450.00
2018-09-19T13:30:03.306Z,455.63
2018-09-19T13:33:02.439Z,444.38
2018-09-19T13:34:02.392Z,427.50
2018-09-19T13:35:02.599Z,466.88
2018-09-19T13:36:02.515Z,444.38
2018-09-19T13:39:04.118Z,450.00
2018-09-19T13:40:02.504Z,450.00
2018-09-19T13:41:02.743Z,455.63
2018-09-19T13:42:02.528Z,500.63
2018-09-19T13:43:03.876Z,495.00
2018-09-19T13:44:02.134Z,483.75
2018-09-19T13:45:02.849Z,450.00
2018-09-19T13:46:02.303Z,450.00
2018-09-19T13:48:02.056Z,365.63
2018-09-19T13:50:03.262Z,472.50
2018-09-19T13:51:03.463Z,489.38
2018-09-19T13:52:02.513Z,523.13
2018-09-19T13:53:02.254Z,489.38
2018-09-19T13:54:02.148Z,517.50
2018-09-19T13:56:02.098Z,511.88
2018-09-19T13:57:02.618Z,388.13
2018-09-19T13:58:02.065Z,433.13
2018-09-19T13:59:02.039Z,534.38
2018-09-19T14:00:02.183Z,371.25
2018-09-19T14:01:02.183Z,376.88
2018-09-19T14:02:02.227Z,371.25
2018-09-19T14:03:02.458Z,444.38
2018-09-19T14:04:02.174Z,416.25
2018-09-19T14:05:02.272Z,393.75
2018-09-19T14:06:02.130Z,376.88
2018-09-19T14:07:02.044Z,376.88
2018-09-19T14:08:02.285Z,303.75
2018-09-19T14:09:02.597Z,348.75
2018-09-19T14:10:02.256Z,365.63
2018-09-19T14:11:02.020Z,365.63
2018-09-19T14:12:02.068Z,343.13
2018-09-19T14:13:02.042Z,365.63
2018-09-19T14:14:02.393Z,371.25
2018-09-19T14:15:02.407Z,360.00
2018-09-19T14:16:02.129Z,343.13
2018-09-19T14:17:01.988Z,309.38
2018-09-19T14:18:02.050Z,331.88
2018-09-19T14:19:02.060Z,309.38
2018-09-19T14:20:02.179Z,230.63
2018-09-19T14:21:02.465Z,213.75
2018-09-19T14:22:02.114Z,275.63
2018-09-19T14:24:01.962Z,253.13
2018-09-19T14:25:01.972Z,315.00
2018-09-19T14:26:01.922Z,286.88
2018-09-19T14:27:02.575Z,360.00
2018-09-19T14:28:02.432Z,298.13
2018-09-19T14:29:02.000Z,309.38